AUA25Y EDDH-LOWW
Flight info
| Callsign | AUA25Y |
|---|---|
| Flight time | 1h 30m |
| Altitude | 39000 |
| Route | AMLUH2G/33 AMLUH M852 DENIX DCT ZUCKA DCT OMELO DCT EVIKU DCT BITSI DCT MIKOV MIKOV8W |
| Aircraft | A20N/M-SDE2E3FGHIRWXY/LB1 |
Departure
| Time | 2026-04-22 19:55 |
|---|---|
| Airport | Hamburg Helmut Schmidt Airport (EDDH) |
Arrival
| Time | 2026-04-22 21:25 |
|---|---|
| Airport | Vienna International Airport (LOWW) |
| Time | Latitude | Longitude | Altitude | Speed | Heading |
|---|---|---|---|---|---|
| 2026-04-22 19:14 | 53.63032 | 10.00349 | 50 ft | 0 kts | 122° |
| 2026-04-22 19:41 | 53.63033 | 10.00349 | 50 ft | 0 kts | 122° |
| 2026-04-22 19:42 | 53.63036 | 10.00341 | 49 ft | 2 kts | 122° |
| 2026-04-22 19:43 | 53.63055 | 10.00296 | 47 ft | 2 kts | 132° |
| 2026-04-22 19:43 | 53.63067 | 10.00276 | 50 ft | 2 kts | 145° |
| 2026-04-22 19:43 | 53.63082 | 10.00263 | 47 ft | 2 kts | 167° |
| 2026-04-22 19:44 | 53.63098 | 10.00260 | 47 ft | 2 kts | 177° |
| 2026-04-22 19:44 | 53.63105 | 10.00259 | 48 ft | 1 kts | 175° |
| 2026-04-22 19:46 | 53.63094 | 10.00261 | 47 ft | 4 kts | 175° |
| 2026-04-22 19:47 | 53.63052 | 10.00243 | 47 ft | 8 kts | 209° |
| 2026-04-22 19:47 | 53.63017 | 10.00207 | 49 ft | 10 kts | 211° |
| 2026-04-22 19:47 | 53.62951 | 10.00136 | 50 ft | 13 kts | 212° |
| 2026-04-22 19:47 | 53.62872 | 10.00048 | 49 ft | 13 kts | 226° |
| 2026-04-22 19:48 | 53.62844 | 9.99961 | 50 ft | 0 kts | 242° |
| 2026-04-22 19:52 | 53.62838 | 9.99943 | 50 ft | 5 kts | 242° |
| 2026-04-22 19:52 | 53.62815 | 9.99866 | 48 ft | 11 kts | 248° |
| 2026-04-22 19:52 | 53.62852 | 9.99754 | 48 ft | 12 kts | 333° |
| 2026-04-22 19:53 | 53.62857 | 9.99750 | 47 ft | 0 kts | 333° |
| 2026-04-22 19:54 | 53.62873 | 9.99736 | 49 ft | 20 kts | 333° |
| 2026-04-22 19:54 | 53.63214 | 9.99441 | 49 ft | 88 kts | 333° |
| 2026-04-22 19:54 | 53.63927 | 9.98822 | 50 ft | 139 kts | 332° |
| 2026-04-22 19:54 | 53.64807 | 9.98068 | 559 ft | 140 kts | 330° |
| 2026-04-22 19:55 | 53.65682 | 9.97327 | 1222 ft | 138 kts | 331° |
| 2026-04-22 19:55 | 53.66534 | 9.96597 | 1803 ft | 141 kts | 332° |
| 2026-04-22 19:55 | 53.67464 | 9.95793 | 2177 ft | 159 kts | 332° |
| 2026-04-22 19:55 | 53.68537 | 9.94980 | 2581 ft | 180 kts | 341° |
| 2026-04-22 19:56 | 53.69825 | 9.94612 | 3011 ft | 203 kts | 358° |
| 2026-04-22 19:56 | 53.71266 | 9.94654 | 3863 ft | 208 kts | 359° |
| 2026-04-22 19:56 | 53.72714 | 9.94908 | 4559 ft | 211 kts | 15° |
| 2026-04-22 19:56 | 53.73990 | 9.96159 | 4869 ft | 218 kts | 43° |
| 2026-04-22 19:57 | 53.74757 | 9.98370 | 4986 ft | 225 kts | 72° |
| 2026-04-22 19:57 | 53.74749 | 10.01033 | 4998 ft | 233 kts | 103° |
| 2026-04-22 19:57 | 53.74206 | 10.03648 | 5158 ft | 239 kts | 113° |
| 2026-04-22 19:57 | 53.73370 | 10.06102 | 5697 ft | 250 kts | 118° |
| 2026-04-22 19:58 | 53.72454 | 10.08763 | 6286 ft | 272 kts | 117° |
| 2026-04-22 19:58 | 53.71501 | 10.11608 | 7101 ft | 281 kts | 117° |
| 2026-04-22 19:58 | 53.70547 | 10.14469 | 7984 ft | 284 kts | 117° |
| 2026-04-22 19:58 | 53.69571 | 10.17393 | 8587 ft | 288 kts | 117° |
| 2026-04-22 19:59 | 53.68284 | 10.20003 | 8995 ft | 294 kts | 141° |
| 2026-04-22 20:00 | 53.57085 | 10.25740 | 11246 ft | 349 kts | 163° |
| 2026-04-22 20:00 | 53.54726 | 10.26821 | 12066 ft | 353 kts | 163° |
| 2026-04-22 20:01 | 53.52346 | 10.27908 | 12977 ft | 356 kts | 163° |
| 2026-04-22 20:01 | 53.49936 | 10.29009 | 13870 ft | 360 kts | 163° |
| 2026-04-22 20:01 | 53.47507 | 10.30118 | 14675 ft | 363 kts | 163° |
| 2026-04-22 20:01 | 53.45045 | 10.31243 | 15444 ft | 367 kts | 163° |
| 2026-04-22 20:02 | 53.42569 | 10.32374 | 16211 ft | 371 kts | 163° |
| 2026-04-22 20:02 | 53.40059 | 10.33513 | 16986 ft | 374 kts | 163° |
| 2026-04-22 20:02 | 53.37534 | 10.34652 | 17735 ft | 378 kts | 163° |
| 2026-04-22 20:02 | 53.34978 | 10.35802 | 18463 ft | 382 kts | 163° |
| 2026-04-22 20:03 | 53.32394 | 10.36962 | 19137 ft | 385 kts | 163° |
| 2026-04-22 20:03 | 53.29835 | 10.38110 | 19815 ft | 387 kts | 163° |
| 2026-04-22 20:03 | 53.27541 | 10.39137 | 20410 ft | 389 kts | 163° |
| 2026-04-22 20:03 | 53.24916 | 10.40313 | 21077 ft | 392 kts | 163° |
| 2026-04-22 20:04 | 53.22280 | 10.41492 | 21741 ft | 394 kts | 163° |
| 2026-04-22 20:04 | 53.19622 | 10.42679 | 22398 ft | 397 kts | 163° |
| 2026-04-22 20:04 | 53.16896 | 10.43895 | 23052 ft | 399 kts | 163° |
| 2026-04-22 20:04 | 53.14250 | 10.45073 | 23692 ft | 402 kts | 163° |
| 2026-04-22 20:05 | 53.11514 | 10.46130 | 24256 ft | 405 kts | 167° |
| 2026-04-22 20:05 | 53.08735 | 10.46985 | 24825 ft | 406 kts | 167° |
| 2026-04-22 20:05 | 53.05957 | 10.47842 | 25382 ft | 408 kts | 166° |
| 2026-04-22 20:05 | 53.03155 | 10.48711 | 25920 ft | 409 kts | 166° |
| 2026-04-22 20:06 | 53.00360 | 10.49578 | 26441 ft | 411 kts | 166° |
| 2026-04-22 20:06 | 52.97532 | 10.50454 | 26948 ft | 413 kts | 165° |
| 2026-04-22 20:06 | 52.94706 | 10.51328 | 27437 ft | 415 kts | 165° |
| 2026-04-22 20:06 | 52.91866 | 10.52206 | 27917 ft | 416 kts | 165° |
| 2026-04-22 20:07 | 52.89002 | 10.53091 | 28395 ft | 418 kts | 164° |
| 2026-04-22 20:07 | 52.86200 | 10.53955 | 28826 ft | 420 kts | 164° |
| 2026-04-22 20:07 | 52.83323 | 10.54842 | 29267 ft | 422 kts | 164° |
| 2026-04-22 20:07 | 52.80456 | 10.55724 | 29690 ft | 423 kts | 163° |
| 2026-04-22 20:08 | 52.77519 | 10.56628 | 30095 ft | 426 kts | 163° |
| 2026-04-22 20:08 | 52.74603 | 10.57524 | 30485 ft | 427 kts | 163° |
| 2026-04-22 20:08 | 52.71677 | 10.58421 | 30833 ft | 429 kts | 163° |
| 2026-04-22 20:08 | 52.68725 | 10.59326 | 31155 ft | 432 kts | 163° |
| 2026-04-22 20:09 | 52.66122 | 10.60122 | 31454 ft | 433 kts | 163° |
| 2026-04-22 20:09 | 52.63130 | 10.61034 | 31889 ft | 433 kts | 162° |
| 2026-04-22 20:09 | 52.60153 | 10.61939 | 32375 ft | 431 kts | 162° |
| 2026-04-22 20:09 | 52.57213 | 10.62833 | 32819 ft | 429 kts | 162° |
| 2026-04-22 20:10 | 52.54277 | 10.63725 | 33267 ft | 428 kts | 162° |
| 2026-04-22 20:10 | 52.51351 | 10.64613 | 33719 ft | 426 kts | 161° |
| 2026-04-22 20:10 | 52.48457 | 10.65490 | 34153 ft | 424 kts | 161° |
| 2026-04-22 20:10 | 52.45527 | 10.66378 | 34536 ft | 423 kts | 161° |
| 2026-04-22 20:11 | 52.42630 | 10.67258 | 34766 ft | 425 kts | 161° |
| 2026-04-22 20:11 | 52.39714 | 10.68144 | 34981 ft | 427 kts | 162° |
| 2026-04-22 20:11 | 52.36777 | 10.69033 | 35220 ft | 429 kts | 162° |
| 2026-04-22 20:11 | 52.33838 | 10.69922 | 35438 ft | 430 kts | 162° |
| 2026-04-22 20:12 | 52.30931 | 10.70800 | 35649 ft | 432 kts | 162° |
| 2026-04-22 20:12 | 52.27914 | 10.71710 | 35874 ft | 433 kts | 162° |
| 2026-04-22 20:12 | 52.25961 | 10.72298 | 36012 ft | 434 kts | 162° |
| 2026-04-22 20:12 | 52.22198 | 10.73430 | 36283 ft | 436 kts | 163° |
| 2026-04-22 20:13 | 52.19172 | 10.74339 | 36487 ft | 437 kts | 163° |
| 2026-04-22 20:13 | 52.16182 | 10.75238 | 36679 ft | 439 kts | 163° |
| 2026-04-22 20:13 | 52.13168 | 10.76141 | 36879 ft | 440 kts | 163° |
| 2026-04-22 20:13 | 52.10159 | 10.77040 | 37069 ft | 441 kts | 164° |
| 2026-04-22 20:14 | 52.07135 | 10.77941 | 37268 ft | 443 kts | 164° |
| 2026-04-22 20:14 | 52.04132 | 10.78834 | 37437 ft | 444 kts | 164° |
| 2026-04-22 20:14 | 52.01249 | 10.79690 | 37609 ft | 445 kts | 164° |
| 2026-04-22 20:14 | 51.98199 | 10.80596 | 37783 ft | 446 kts | 165° |
| 2026-04-22 20:15 | 51.95107 | 10.81512 | 37959 ft | 448 kts | 165° |
| 2026-04-22 20:15 | 51.92072 | 10.82411 | 38140 ft | 449 kts | 165° |
| 2026-04-22 20:15 | 51.88998 | 10.83319 | 38287 ft | 450 kts | 165° |
| 2026-04-22 20:15 | 51.85904 | 10.84233 | 38460 ft | 451 kts | 165° |
| 2026-04-22 20:16 | 51.82807 | 10.85146 | 38614 ft | 452 kts | 165° |
| 2026-04-22 20:16 | 51.79708 | 10.86058 | 38771 ft | 453 kts | 166° |
| 2026-04-22 20:16 | 51.76616 | 10.87031 | 38926 ft | 452 kts | 161° |
| 2026-04-22 20:16 | 51.73652 | 10.88623 | 39046 ft | 448 kts | 152° |
| 2026-04-22 20:17 | 51.70910 | 10.90951 | 39157 ft | 443 kts | 143° |
| 2026-04-22 20:17 | 51.68457 | 10.93929 | 39275 ft | 439 kts | 134° |
| 2026-04-22 20:17 | 51.67020 | 10.96199 | 39309 ft | 437 kts | 128° |
| 2026-04-22 20:17 | 51.64645 | 11.01314 | 39327 ft | 431 kts | 117° |
| 2026-04-22 20:18 | 51.63308 | 11.05601 | 39329 ft | 428 kts | 109° |
| 2026-04-22 20:18 | 51.61472 | 11.12984 | 39326 ft | 427 kts | 109° |
| 2026-04-22 20:19 | 51.59376 | 11.21269 | 39330 ft | 427 kts | 109° |
| 2026-04-22 20:19 | 51.56750 | 11.31546 | 39326 ft | 427 kts | 109° |
| 2026-04-22 20:20 | 51.54861 | 11.38907 | 39322 ft | 427 kts | 109° |
| 2026-04-22 20:20 | 51.52585 | 11.47743 | 39321 ft | 427 kts | 109° |
| 2026-04-22 20:21 | 51.50694 | 11.55056 | 39323 ft | 427 kts | 109° |
| 2026-04-22 20:21 | 51.48475 | 11.63609 | 39324 ft | 427 kts | 110° |
| 2026-04-22 20:22 | 51.46200 | 11.72340 | 39324 ft | 426 kts | 110° |
| 2026-04-22 20:22 | 51.43908 | 11.81111 | 39323 ft | 426 kts | 110° |
| 2026-04-22 20:23 | 51.41614 | 11.89861 | 39323 ft | 426 kts | 110° |
| 2026-04-22 20:23 | 51.39350 | 11.98461 | 39324 ft | 426 kts | 110° |
| 2026-04-22 20:24 | 51.37794 | 12.04354 | 39322 ft | 425 kts | 110° |
| 2026-04-22 20:24 | 51.35481 | 12.13086 | 39323 ft | 425 kts | 110° |
| 2026-04-22 20:25 | 51.33165 | 12.21794 | 39322 ft | 425 kts | 110° |
| 2026-04-22 20:25 | 51.31064 | 12.29663 | 39319 ft | 424 kts | 110° |
| 2026-04-22 20:26 | 51.29134 | 12.36872 | 39314 ft | 424 kts | 110° |
| 2026-04-22 20:26 | 51.28291 | 12.40008 | 39312 ft | 424 kts | 110° |
| 2026-04-22 20:27 | 51.26559 | 12.46445 | 39307 ft | 424 kts | 110° |
| 2026-04-22 20:27 | 51.24226 | 12.55090 | 39302 ft | 424 kts | 110° |
| 2026-04-22 20:28 | 51.21886 | 12.63731 | 39300 ft | 424 kts | 110° |
| 2026-04-22 20:28 | 51.19545 | 12.72344 | 39300 ft | 424 kts | 110° |
| 2026-04-22 20:29 | 51.17207 | 12.80912 | 39297 ft | 424 kts | 110° |
| 2026-04-22 20:29 | 51.14850 | 12.89521 | 39292 ft | 424 kts | 110° |
| 2026-04-22 20:30 | 51.12486 | 12.98122 | 39297 ft | 424 kts | 110° |
| 2026-04-22 20:30 | 51.10110 | 13.06731 | 39294 ft | 425 kts | 110° |
| 2026-04-22 20:31 | 51.07724 | 13.15349 | 39290 ft | 425 kts | 110° |
| 2026-04-22 20:31 | 51.05332 | 13.23954 | 39288 ft | 426 kts | 111° |
| 2026-04-22 20:32 | 51.02932 | 13.32560 | 39294 ft | 426 kts | 111° |
| 2026-04-22 20:32 | 51.00522 | 13.41164 | 39292 ft | 426 kts | 111° |
| 2026-04-22 20:33 | 50.98117 | 13.49722 | 39295 ft | 426 kts | 111° |
| 2026-04-22 20:33 | 50.95698 | 13.58301 | 39297 ft | 426 kts | 111° |
| 2026-04-22 20:34 | 50.93272 | 13.66870 | 39296 ft | 426 kts | 111° |
| 2026-04-22 20:34 | 50.90836 | 13.75443 | 39293 ft | 426 kts | 111° |
| 2026-04-22 20:35 | 50.88394 | 13.84008 | 39280 ft | 426 kts | 111° |
| 2026-04-22 20:35 | 50.85909 | 13.92548 | 39280 ft | 427 kts | 114° |
| 2026-04-22 20:36 | 50.82711 | 14.00524 | 39275 ft | 432 kts | 124° |
| 2026-04-22 20:36 | 50.78653 | 14.07533 | 39269 ft | 437 kts | 134° |
| 2026-04-22 20:37 | 50.74148 | 14.13989 | 39265 ft | 437 kts | 133° |
| 2026-04-22 20:37 | 50.69656 | 14.20468 | 39263 ft | 437 kts | 134° |
| 2026-04-22 20:38 | 50.65160 | 14.26929 | 39264 ft | 438 kts | 134° |
| 2026-04-22 20:38 | 50.60709 | 14.33304 | 39260 ft | 438 kts | 134° |
| 2026-04-22 20:39 | 50.56194 | 14.39751 | 39263 ft | 438 kts | 134° |
| 2026-04-22 20:39 | 50.51665 | 14.46201 | 39252 ft | 438 kts | 134° |
| 2026-04-22 20:40 | 50.47180 | 14.52572 | 39254 ft | 439 kts | 134° |
| 2026-04-22 20:40 | 50.42683 | 14.59155 | 39253 ft | 438 kts | 131° |
| 2026-04-22 20:41 | 50.38332 | 14.65849 | 39254 ft | 438 kts | 131° |
| 2026-04-22 20:41 | 50.33987 | 14.72472 | 39251 ft | 439 kts | 132° |
| 2026-04-22 20:42 | 50.30310 | 14.78029 | 39255 ft | 439 kts | 132° |
| 2026-04-22 20:42 | 50.25483 | 14.85296 | 39252 ft | 440 kts | 132° |
| 2026-04-22 20:43 | 50.22025 | 14.90490 | 39252 ft | 440 kts | 132° |
| 2026-04-22 20:43 | 50.18017 | 14.96494 | 39251 ft | 440 kts | 132° |
| 2026-04-22 20:44 | 50.13589 | 15.03111 | 39250 ft | 441 kts | 132° |
| 2026-04-22 20:44 | 50.09151 | 15.09726 | 39248 ft | 441 kts | 132° |
| 2026-04-22 20:45 | 50.04707 | 15.16334 | 39252 ft | 442 kts | 132° |
| 2026-04-22 20:45 | 50.00252 | 15.22937 | 39250 ft | 442 kts | 132° |
| 2026-04-22 20:46 | 49.93620 | 15.32736 | 39249 ft | 443 kts | 132° |
| 2026-04-22 20:46 | 49.89171 | 15.39289 | 39247 ft | 444 kts | 132° |
| 2026-04-22 20:47 | 49.84686 | 15.45876 | 39245 ft | 444 kts | 133° |
| 2026-04-22 20:47 | 49.80199 | 15.52448 | 39245 ft | 444 kts | 133° |
| 2026-04-22 20:48 | 49.75700 | 15.59021 | 39246 ft | 444 kts | 133° |
| 2026-04-22 20:48 | 49.71197 | 15.65582 | 39251 ft | 445 kts | 133° |
| 2026-04-22 20:49 | 49.66687 | 15.72134 | 39241 ft | 445 kts | 133° |
| 2026-04-22 20:49 | 49.62179 | 15.78668 | 39243 ft | 445 kts | 133° |
| 2026-04-22 20:50 | 49.57686 | 15.85162 | 39240 ft | 445 kts | 133° |
| 2026-04-22 20:50 | 49.53171 | 15.91670 | 39231 ft | 445 kts | 133° |
| 2026-04-22 20:51 | 49.48636 | 15.98190 | 39231 ft | 445 kts | 133° |
| 2026-04-22 20:51 | 49.44113 | 16.04674 | 39228 ft | 445 kts | 133° |
| 2026-04-22 20:52 | 49.39581 | 16.11155 | 39229 ft | 445 kts | 133° |
| 2026-04-22 20:52 | 49.35060 | 16.17603 | 38960 ft | 446 kts | 133° |
| 2026-04-22 20:53 | 49.32727 | 16.20736 | 38689 ft | 446 kts | 137° |
| 2026-04-22 20:53 | 49.30237 | 16.23542 | 38407 ft | 447 kts | 142° |
| 2026-04-22 20:53 | 49.28446 | 16.25269 | 38177 ft | 448 kts | 145° |
| 2026-04-22 20:53 | 49.25683 | 16.27509 | 37558 ft | 452 kts | 150° |
| 2026-04-22 20:54 | 49.21904 | 16.30251 | 36625 ft | 452 kts | 149° |
| 2026-04-22 20:54 | 49.19056 | 16.32340 | 35907 ft | 452 kts | 148° |
| 2026-04-22 20:54 | 49.17183 | 16.33718 | 35470 ft | 451 kts | 148° |
| 2026-04-22 20:54 | 49.14355 | 16.35801 | 34804 ft | 449 kts | 147° |
| 2026-04-22 20:55 | 49.11536 | 16.37875 | 34102 ft | 446 kts | 147° |
| 2026-04-22 20:55 | 49.08742 | 16.39935 | 33245 ft | 445 kts | 147° |
| 2026-04-22 20:55 | 49.05962 | 16.41983 | 32474 ft | 443 kts | 147° |
| 2026-04-22 20:55 | 49.03225 | 16.43996 | 31740 ft | 442 kts | 147° |
| 2026-04-22 20:56 | 49.00856 | 16.45734 | 31306 ft | 436 kts | 147° |
| 2026-04-22 20:56 | 48.98129 | 16.47731 | 30672 ft | 432 kts | 147° |
| 2026-04-22 20:56 | 48.95497 | 16.49657 | 30181 ft | 426 kts | 147° |
| 2026-04-22 20:56 | 48.92838 | 16.51602 | 29617 ft | 420 kts | 147° |
| 2026-04-22 20:57 | 48.90220 | 16.53514 | 29067 ft | 413 kts | 147° |
| 2026-04-22 20:57 | 48.87652 | 16.55389 | 28521 ft | 407 kts | 147° |
| 2026-04-22 20:57 | 48.85107 | 16.57246 | 28012 ft | 402 kts | 147° |
| 2026-04-22 20:57 | 48.82592 | 16.59079 | 27489 ft | 397 kts | 147° |
| 2026-04-22 20:58 | 48.80115 | 16.60867 | 26981 ft | 394 kts | 149° |
| 2026-04-22 20:58 | 48.77542 | 16.62326 | 26464 ft | 396 kts | 156° |
| 2026-04-22 20:58 | 48.74863 | 16.63312 | 25938 ft | 397 kts | 161° |
| 2026-04-22 20:58 | 48.72150 | 16.64186 | 25416 ft | 395 kts | 161° |
| 2026-04-22 20:59 | 48.69434 | 16.65078 | 24903 ft | 411 kts | 161° |
| 2026-04-22 20:59 | 48.66610 | 16.66016 | 24708 ft | 419 kts | 161° |
| 2026-04-22 20:59 | 48.63746 | 16.66955 | 24365 ft | 419 kts | 161° |
| 2026-04-22 20:59 | 48.60884 | 16.67892 | 23603 ft | 425 kts | 162° |
| 2026-04-22 21:00 | 48.57919 | 16.68575 | 22501 ft | 437 kts | 170° |
| 2026-04-22 21:00 | 48.54905 | 16.68631 | 21815 ft | 439 kts | 179° |
| 2026-04-22 21:00 | 48.51833 | 16.68190 | 21073 ft | 438 kts | 182° |
| 2026-04-22 21:00 | 48.48831 | 16.67712 | 20533 ft | 431 kts | 182° |
| 2026-04-22 21:01 | 48.45865 | 16.67245 | 19963 ft | 420 kts | 182° |
| 2026-04-22 21:01 | 48.43035 | 16.66806 | 19344 ft | 409 kts | 182° |
| 2026-04-22 21:01 | 48.42014 | 16.66648 | 19266 ft | 401 kts | 182° |
| 2026-04-22 21:01 | 48.39306 | 16.66230 | 19045 ft | 381 kts | 182° |
| 2026-04-22 21:02 | 48.36770 | 16.65839 | 18858 ft | 362 kts | 181° |
| 2026-04-22 21:02 | 48.34323 | 16.65465 | 18692 ft | 344 kts | 181° |
| 2026-04-22 21:02 | 48.32006 | 16.65112 | 18538 ft | 327 kts | 181° |
| 2026-04-22 21:02 | 48.29842 | 16.64313 | 18356 ft | 315 kts | 205° |
| 2026-04-22 21:03 | 48.28389 | 16.62811 | 18122 ft | 305 kts | 226° |
| 2026-04-22 21:03 | 48.27190 | 16.60099 | 17630 ft | 294 kts | 255° |
| 2026-04-22 21:03 | 48.26938 | 16.57147 | 17337 ft | 286 kts | 283° |
| 2026-04-22 21:03 | 48.27537 | 16.54407 | 17059 ft | 270 kts | 308° |
| 2026-04-22 21:04 | 48.28694 | 16.52313 | 16807 ft | 255 kts | 327° |
| 2026-04-22 21:04 | 48.30175 | 16.50955 | 16554 ft | 246 kts | 345° |
| 2026-04-22 21:04 | 48.31808 | 16.50399 | 16284 ft | 238 kts | 2° |
| 2026-04-22 21:04 | 48.33433 | 16.50639 | 16030 ft | 233 kts | 14° |
| 2026-04-22 21:05 | 48.35024 | 16.51121 | 15772 ft | 233 kts | 14° |
| 2026-04-22 21:05 | 48.36612 | 16.51582 | 15518 ft | 233 kts | 13° |
| 2026-04-22 21:05 | 48.38202 | 16.52041 | 15268 ft | 232 kts | 13° |
| 2026-04-22 21:05 | 48.39780 | 16.52498 | 15018 ft | 231 kts | 13° |
| 2026-04-22 21:06 | 48.41368 | 16.52961 | 14773 ft | 231 kts | 13° |
| 2026-04-22 21:06 | 48.42874 | 16.53714 | 14525 ft | 229 kts | 27° |
| 2026-04-22 21:06 | 48.44182 | 16.55082 | 14283 ft | 230 kts | 43° |
| 2026-04-22 21:06 | 48.45141 | 16.57013 | 14047 ft | 234 kts | 60° |
| 2026-04-22 21:07 | 48.45625 | 16.59336 | 13774 ft | 239 kts | 79° |
| 2026-04-22 21:07 | 48.45553 | 16.61861 | 13503 ft | 246 kts | 98° |
| 2026-04-22 21:07 | 48.44886 | 16.64261 | 13233 ft | 254 kts | 119° |
| 2026-04-22 21:07 | 48.43659 | 16.66211 | 12969 ft | 262 kts | 141° |
| 2026-04-22 21:08 | 48.42003 | 16.67383 | 12707 ft | 267 kts | 164° |
| 2026-04-22 21:08 | 48.40142 | 16.67548 | 12443 ft | 269 kts | 188° |
| 2026-04-22 21:08 | 48.38307 | 16.66981 | 12186 ft | 269 kts | 192° |
| 2026-04-22 21:08 | 48.36476 | 16.66429 | 11921 ft | 267 kts | 191° |
| 2026-04-22 21:09 | 48.34624 | 16.65959 | 11680 ft | 283 kts | 187° |
| 2026-04-22 21:09 | 48.32491 | 16.65545 | 11448 ft | 332 kts | 187° |
| 2026-04-22 21:09 | 48.30203 | 16.65134 | 11195 ft | 355 kts | 186° |
| 2026-04-22 21:09 | 48.27746 | 16.64701 | 10956 ft | 359 kts | 187° |
| 2026-04-22 21:10 | 48.25273 | 16.64264 | 10708 ft | 355 kts | 187° |
| 2026-04-22 21:10 | 48.22820 | 16.63829 | 10480 ft | 353 kts | 187° |
| 2026-04-22 21:10 | 48.20456 | 16.63714 | 10339 ft | 337 kts | 171° |
| 2026-04-22 21:10 | 48.18287 | 16.64812 | 10143 ft | 314 kts | 146° |
| 2026-04-22 21:11 | 48.16706 | 16.66904 | 9675 ft | 299 kts | 121° |
| 2026-04-22 21:11 | 48.15776 | 16.69564 | 9410 ft | 287 kts | 109° |
| 2026-04-22 21:11 | 48.15025 | 16.72349 | 9281 ft | 289 kts | 108° |
| 2026-04-22 21:11 | 48.14257 | 16.75131 | 9148 ft | 288 kts | 109° |
| 2026-04-22 21:12 | 48.13443 | 16.77865 | 8954 ft | 287 kts | 111° |
| 2026-04-22 21:12 | 48.12588 | 16.80565 | 8614 ft | 286 kts | 111° |
| 2026-04-22 21:12 | 48.11728 | 16.83185 | 8497 ft | 274 kts | 112° |
| 2026-04-22 21:12 | 48.10897 | 16.85682 | 8290 ft | 264 kts | 112° |
| 2026-04-22 21:13 | 48.10083 | 16.88124 | 7853 ft | 262 kts | 112° |
| 2026-04-22 21:13 | 48.09268 | 16.90574 | 7677 ft | 263 kts | 112° |
| 2026-04-22 21:13 | 48.08441 | 16.93059 | 7549 ft | 263 kts | 112° |
| 2026-04-22 21:13 | 48.07628 | 16.95496 | 7424 ft | 262 kts | 112° |
| 2026-04-22 21:14 | 48.06814 | 16.97938 | 7298 ft | 262 kts | 112° |
| 2026-04-22 21:14 | 48.06001 | 17.00371 | 7168 ft | 262 kts | 112° |
| 2026-04-22 21:14 | 48.05185 | 17.02809 | 7057 ft | 261 kts | 112° |
| 2026-04-22 21:14 | 48.04374 | 17.05233 | 6918 ft | 261 kts | 112° |
| 2026-04-22 21:15 | 48.03562 | 17.07658 | 6798 ft | 261 kts | 112° |
| 2026-04-22 21:15 | 48.02751 | 17.10074 | 6664 ft | 260 kts | 112° |
| 2026-04-22 21:15 | 48.01938 | 17.12498 | 6544 ft | 260 kts | 112° |
| 2026-04-22 21:15 | 48.01104 | 17.14887 | 6421 ft | 261 kts | 120° |
| 2026-04-22 21:16 | 47.99777 | 17.16740 | 6272 ft | 267 kts | 150° |
| 2026-04-22 21:16 | 47.97996 | 17.17465 | 6155 ft | 268 kts | 180° |
| 2026-04-22 21:16 | 47.96190 | 17.16891 | 6037 ft | 265 kts | 207° |
| 2026-04-22 21:16 | 47.94650 | 17.15525 | 5983 ft | 261 kts | 225° |
| 2026-04-22 21:17 | 47.93612 | 17.13309 | 5863 ft | 253 kts | 256° |
| 2026-04-22 21:17 | 47.93415 | 17.10773 | 5729 ft | 244 kts | 283° |
| 2026-04-22 21:17 | 47.93969 | 17.08458 | 5612 ft | 235 kts | 304° |
| 2026-04-22 21:17 | 47.94824 | 17.06381 | 5480 ft | 235 kts | 305° |
| 2026-04-22 21:18 | 47.95625 | 17.04263 | 5350 ft | 235 kts | 302° |
| 2026-04-22 21:18 | 47.96362 | 17.02089 | 5222 ft | 235 kts | 301° |
| 2026-04-22 21:18 | 47.97071 | 16.99925 | 5091 ft | 235 kts | 301° |
| 2026-04-22 21:18 | 47.97786 | 16.97741 | 4977 ft | 234 kts | 301° |
| 2026-04-22 21:19 | 47.98497 | 16.95564 | 4832 ft | 233 kts | 301° |
| 2026-04-22 21:19 | 47.99210 | 16.93385 | 4641 ft | 232 kts | 301° |
| 2026-04-22 21:19 | 47.99918 | 16.91221 | 4539 ft | 232 kts | 301° |
| 2026-04-22 21:19 | 48.00636 | 16.89024 | 4424 ft | 232 kts | 301° |
| 2026-04-22 21:20 | 48.01337 | 16.86879 | 4322 ft | 232 kts | 301° |
| 2026-04-22 21:20 | 48.02022 | 16.84785 | 4216 ft | 232 kts | 301° |
| 2026-04-22 21:20 | 48.02719 | 16.82648 | 4115 ft | 231 kts | 301° |
| 2026-04-22 21:20 | 48.03424 | 16.80490 | 3921 ft | 231 kts | 301° |
| 2026-04-22 21:21 | 48.04123 | 16.78349 | 3644 ft | 227 kts | 301° |
| 2026-04-22 21:21 | 48.04813 | 16.76237 | 3365 ft | 225 kts | 301° |
| 2026-04-22 21:21 | 48.05489 | 16.74163 | 3063 ft | 216 kts | 301° |
| 2026-04-22 21:21 | 48.06121 | 16.72225 | 2786 ft | 200 kts | 301° |
| 2026-04-22 21:22 | 48.06742 | 16.70326 | 2515 ft | 204 kts | 301° |
| 2026-04-22 21:22 | 48.07342 | 16.68479 | 2233 ft | 190 kts | 301° |
| 2026-04-22 21:22 | 48.07903 | 16.66759 | 1971 ft | 179 kts | 301° |
| 2026-04-22 21:22 | 48.08433 | 16.65128 | 1762 ft | 167 kts | 301° |
| 2026-04-22 21:23 | 48.08927 | 16.63621 | 1519 ft | 155 kts | 300° |
| 2026-04-22 21:23 | 48.09383 | 16.62218 | 1306 ft | 146 kts | 299° |
| 2026-04-22 21:23 | 48.09809 | 16.60914 | 1115 ft | 132 kts | 298° |
| 2026-04-22 21:23 | 48.10188 | 16.59738 | 935 ft | 119 kts | 297° |
| 2026-04-22 21:24 | 48.10551 | 16.58592 | 819 ft | 122 kts | 297° |
| 2026-04-22 21:24 | 48.10919 | 16.57460 | 665 ft | 120 kts | 301° |
| 2026-04-22 21:24 | 48.11281 | 16.56328 | 624 ft | 118 kts | 302° |
| 2026-04-22 21:24 | 48.11587 | 16.55473 | 619 ft | 65 kts | 297° |
| 2026-04-22 21:25 | 48.11745 | 16.54994 | 613 ft | 47 kts | 297° |
| 2026-04-22 21:25 | 48.11890 | 16.54668 | 620 ft | 32 kts | 319° |
| 2026-04-22 21:25 | 48.11966 | 16.54590 | 624 ft | 7 kts | 325° |
| 2026-04-22 21:25 | 48.12003 | 16.54553 | 611 ft | 6 kts | 329° |
| 2026-04-22 21:26 | 48.12043 | 16.54543 | 622 ft | 7 kts | 4° |
| 2026-04-22 21:26 | 48.12084 | 16.54568 | 611 ft | 7 kts | 24° |
| 2026-04-22 21:26 | 48.12127 | 16.54598 | 614 ft | 7 kts | 25° |
| 2026-04-22 21:26 | 48.12143 | 16.54649 | 606 ft | 6 kts | 99° |
| 2026-04-22 21:27 | 48.12124 | 16.54715 | 615 ft | 9 kts | 114° |
| 2026-04-22 21:27 | 48.12090 | 16.54817 | 615 ft | 13 kts | 118° |
| 2026-04-22 21:27 | 48.12045 | 16.54957 | 599 ft | 17 kts | 113° |
| 2026-04-22 21:27 | 48.11989 | 16.55123 | 613 ft | 19 kts | 118° |
| 2026-04-22 21:28 | 48.11929 | 16.55312 | 611 ft | 20 kts | 117° |
| 2026-04-22 21:28 | 48.11892 | 16.55494 | 605 ft | 15 kts | 62° |
| 2026-04-22 21:28 | 48.11987 | 16.55527 | 601 ft | 15 kts | 353° |
| 2026-04-22 21:28 | 48.12046 | 16.55531 | 599 ft | 0 kts | 25° |
| 2026-04-22 21:29 | 48.12050 | 16.55534 | 598 ft | 3 kts | 25° |
| 2026-04-22 21:29 | 48.12069 | 16.55561 | 597 ft | 4 kts | 64° |
| 2026-04-22 21:29 | 48.12063 | 16.55603 | 597 ft | 5 kts | 113° |
| 2026-04-22 21:29 | 48.12056 | 16.55626 | 597 ft | 0 kts | 114° |